Terminal Aerodrome Forecast
Issued by NWS

Home | Current Version | Previous Version | Text Only | Print | Product List | Glossary On
Versions: 1 2 3 4 5 6 7 8 9 10 11 12 13 14 15 16 17 18 19 20 21 22
000
FTUS45 KVEF 271900 AAA
TAFHND
TAF AMD
KHND 271922Z 2719/2818 18005KT P6SM SCT012 SCT020 OVC035
      TEMPO 2719/2721 SCT012 BKN020
     FM272100 17006KT P6SM SCT025 BKN040
     FM280300 17006KT P6SM SCT040 SCT250=

USA.gov is the U.S. government's official web portal to all federal, state and local government web resources and services.